createdAt,value
2023-02-28T00:01:42.309Z,18.50
2023-02-28T00:11:45.434Z,17.40
2023-02-28T00:21:48.532Z,18.70
2023-02-28T00:31:51.758Z,18.90
2023-02-28T00:41:54.837Z,20.10
2023-02-28T00:51:58.305Z,19.70
2023-02-28T01:02:03.270Z,22.20
2023-02-28T01:12:08.734Z,22.40
2023-02-28T01:22:12.862Z,21.70
2023-02-28T01:32:16.083Z,21.70
2023-02-28T01:42:19.294Z,22.80
2023-02-28T01:52:24.861Z,22.20
2023-02-28T02:02:30.525Z,16.30
2023-02-28T02:13:04.765Z,13.70
2023-02-28T02:23:09.371Z,12.80
2023-02-28T02:33:18.385Z,15.40
2023-02-28T02:43:32.830Z,16.60
2023-02-28T02:53:42.100Z,11.90
2023-02-28T03:03:47.965Z,12.10
2023-02-28T03:14:22.829Z,12.40
2023-02-28T03:24:54.130Z,14.10
2023-02-28T03:35:00.435Z,15.80
2023-02-28T03:45:10.046Z,13.30
2023-02-28T03:55:16.047Z,13.40
2023-02-28T04:05:21.384Z,13.40
2023-02-28T04:15:25.874Z,12.50
2023-02-28T04:25:29.072Z,12.40
2023-02-28T04:35:32.239Z,14.40
2023-02-28T04:45:36.374Z,15.60
2023-02-28T04:55:41.444Z,15.10
2023-02-28T05:05:45.009Z,12.80
2023-02-28T05:15:48.267Z,15.90
2023-02-28T05:25:53.169Z,13.50
2023-02-28T05:35:57.360Z,12.90
2023-02-28T05:46:02.939Z,15.90
2023-02-28T05:56:06.333Z,18.90
2023-02-28T06:06:09.458Z,15.80
2023-02-28T06:16:13.761Z,17.20
2023-02-28T06:26:17.644Z,18.20
2023-02-28T06:36:22.095Z,19.30
2023-02-28T06:46:25.256Z,29.10
2023-02-28T06:56:28.774Z,23.70
2023-02-28T07:06:32.394Z,21.20
2023-02-28T07:16:37.021Z,17.90
2023-02-28T07:26:40.405Z,15.80
2023-02-28T07:36:43.480Z,21.00
2023-02-28T07:46:46.859Z,19.40
2023-02-28T07:56:50.391Z,7.60
2023-02-28T08:06:54.287Z,8.10
2023-02-28T08:16:57.491Z,6.20
2023-02-28T08:27:00.627Z,5.90
2023-02-28T08:37:03.899Z,6.20
2023-02-28T08:47:06.978Z,7.00
2023-02-28T08:57:10.905Z,9.00
2023-02-28T09:07:14.061Z,7.60
2023-02-28T09:17:18.127Z,7.50
2023-02-28T09:27:22.237Z,7.60
2023-02-28T09:37:26.107Z,8.70
2023-02-28T09:47:40.631Z,7.00
2023-02-28T09:57:43.934Z,7.40
2023-02-28T10:08:26.330Z,9.00
2023-02-28T10:18:52.102Z,6.80
2023-02-28T10:28:56.328Z,7.00
2023-02-28T10:39:02.390Z,7.50
2023-02-28T10:49:13.536Z,7.80
2023-02-28T10:59:16.651Z,9.00
2023-02-28T11:09:26.927Z,7.90
2023-02-28T11:19:45.936Z,8.70
2023-02-28T11:29:50.542Z,7.90
2023-02-28T11:39:53.691Z,8.90
2023-02-28T11:50:21.601Z,7.30
2023-02-28T12:10:58.874Z,9.20
2023-02-28T12:21:39.961Z,8.50
2023-02-28T12:31:50.531Z,8.90
2023-02-28T12:42:08.934Z,7.30
2023-02-28T12:52:14.753Z,8.40
2023-02-28T13:02:23.849Z,8.80
2023-02-28T13:12:28.010Z,8.50
2023-02-28T13:22:50.484Z,8.90
2023-02-28T13:33:24.368Z,10.00
2023-02-28T13:44:07.421Z,9.80
2023-02-28T13:54:18.431Z,10.00
2023-02-28T14:04:40.466Z,11.20
2023-02-28T14:14:43.988Z,11.90
2023-02-28T14:25:32.131Z,11.90
2023-02-28T14:36:05.307Z,12.00
2023-02-28T14:46:08.718Z,12.10
2023-02-28T14:56:39.670Z,13.90
2023-02-28T15:06:42.993Z,11.90
2023-02-28T15:16:51.080Z,13.40
2023-02-28T15:26:59.804Z,11.70
2023-02-28T15:37:03.117Z,14.00
2023-02-28T15:47:17.937Z,15.20
2023-02-28T15:57:29.087Z,17.90
2023-02-28T16:07:32.329Z,14.60
2023-02-28T16:17:40.141Z,20.00
2023-02-28T16:27:46.519Z,18.30
2023-02-28T16:37:53.620Z,14.70
2023-02-28T16:47:57.544Z,16.30
2023-02-28T16:58:02.376Z,19.00
2023-02-28T17:08:06.773Z,25.90
2023-02-28T17:18:16.945Z,27.80
2023-02-28T17:28:22.559Z,23.40
2023-02-28T17:38:25.920Z,22.80
2023-02-28T17:48:31.438Z,24.60
2023-02-28T17:58:35.280Z,28.20
2023-02-28T18:08:39.600Z,27.70
2023-02-28T18:18:44.349Z,40.30
2023-02-28T18:28:48.570Z,35.40
2023-02-28T18:38:52.939Z,33.40
2023-02-28T18:48:56.184Z,32.50
2023-02-28T18:58:59.306Z,32.10
2023-02-28T19:09:04.644Z,30.40
2023-02-28T19:19:07.890Z,36.90
2023-02-28T19:29:11.010Z,33.10
2023-02-28T19:39:14.228Z,40.00
2023-02-28T19:49:19.695Z,40.10
2023-02-28T19:59:31.355Z,36.80
2023-02-28T20:09:42.117Z,40.10
2023-02-28T20:19:45.702Z,34.60
2023-02-28T20:29:49.776Z,36.50
2023-02-28T20:39:53.517Z,31.90
2023-02-28T20:49:56.721Z,35.10
2023-02-28T20:59:59.848Z,38.40
2023-02-28T21:10:03.333Z,50.40
2023-02-28T21:20:06.887Z,35.10
2023-02-28T21:30:10.663Z,46.50
2023-02-28T21:40:14.169Z,44.90
2023-02-28T21:50:17.324Z,43.60
2023-02-28T22:00:21.090Z,40.50
2023-02-28T22:10:25.100Z,45.80
2023-02-28T22:20:28.180Z,62.90
2023-02-28T22:30:31.483Z,45.50
2023-02-28T22:40:35.635Z,47.00
2023-02-28T22:50:39.829Z,49.60
2023-02-28T23:00:43.980Z,46.50
2023-02-28T23:10:47.115Z,44.60
2023-02-28T23:20:50.261Z,42.40
2023-02-28T23:30:53.490Z,43.80
2023-02-28T23:40:56.779Z,46.50
2023-02-28T23:51:21.004Z,33.10
